Time;durP1;ratioP1;P1;durP2;ratioP2;P2;SDS_P1;SDS_P2;PMS_P1;PMS_P2;Temp;Humidity;BMP_temperature;BMP_pressure;BME280_temperature;BME280_humidity;BME280_pressure;Samples;Min_cycle;Max_cycle;Signal;HPM_P1;HPM_P2
2023/01/13 00:00:56;;;;;;;19.05;3.67;;;;;;;;;;4957076;28;20298;-68
2023/01/13 00:03:22;;;;;;;16.02;3.03;;;;;;;;;;4987421;28;20731;-67
2023/01/13 00:05:47;;;;;;;13.10;2.30;;;;;;;;;;4989194;28;20224;-68
2023/01/13 00:08:12;;;;;;;16.10;2.78;;;;;;;;;;4984139;28;20191;-68
2023/01/13 00:10:38;;;;;;;17.60;2.72;;;;;;;;;;4986199;28;20617;-68
2023/01/13 00:13:04;;;;;;;17.70;3.38;;;;;;;;;;4990386;28;20191;-68
2023/01/13 00:15:29;;;;;;;15.98;3.80;;;;;;;;;;4988860;28;20334;-67
2023/01/13 00:17:55;;;;;;;33.63;4.28;;;;;;;;;;4996899;28;20277;-67
2023/01/13 00:20:20;;;;;;;19.20;3.00;;;;;;;;;;4993553;28;20192;-68
2023/01/13 00:22:46;;;;;;;20.52;2.75;;;;;;;;;;4989095;28;20195;-68
2023/01/13 00:25:11;;;;;;;17.70;3.55;;;;;;;;;;5000921;28;20234;-67
2023/01/13 00:27:37;;;;;;;19.35;2.80;;;;;;;;;;4994086;28;20222;-67
2023/01/13 00:30:03;;;;;;;25.77;3.70;;;;;;;;;;4981272;28;20195;-67
2023/01/13 00:32:28;;;;;;;13.32;3.20;;;;;;;;;;5000834;28;20191;-67
2023/01/13 00:34:54;;;;;;;20.20;3.08;;;;;;;;;;4983781;28;20187;-67
2023/01/13 00:37:19;;;;;;;25.48;3.03;;;;;;;;;;4986792;28;20589;-67
2023/01/13 00:39:45;;;;;;;18.33;2.75;;;;;;;;;;4983885;28;20199;-67
2023/01/13 00:44:54;;;;;;;22.50;3.55;;;;;;;;;;4985501;28;20201;-67
2023/01/13 00:47:20;;;;;;;17.60;3.35;;;;;;;;;;4985071;28;20207;-67
2023/01/13 00:49:45;;;;;;;19.20;2.63;;;;;;;;;;4984326;28;20196;-67
2023/01/13 00:52:11;;;;;;;23.33;3.13;;;;;;;;;;4985526;28;20203;-67
2023/01/13 00:54:36;;;;;;;23.85;3.22;;;;;;;;;;4986253;28;20610;-67
2023/01/13 00:57:03;;;;;;;16.05;2.70;;;;;;;;;;4987215;28;20621;-67
2023/01/13 00:59:28;;;;;;;19.17;2.90;;;;;;;;;;4984941;28;20188;-67
2023/01/13 01:01:54;;;;;;;21.95;3.45;;;;;;;;;;4982735;28;20218;-67
2023/01/13 01:04:19;;;;;;;23.35;3.33;;;;;;;;;;4981020;28;20188;-66
2023/01/13 01:06:45;;;;;;;32.13;3.22;;;;;;;;;;4985937;28;20230;-67
2023/01/13 01:09:14;;;;;;;28.25;3.33;;;;;;;;;;4977357;28;20199;-66
2023/01/13 01:11:40;;;;;;;28.52;3.22;;;;;;;;;;4979181;28;20207;-67
2023/01/13 01:14:06;;;;;;;26.98;4.30;;;;;;;;;;4981565;28;20191;-66
2023/01/13 01:16:32;;;;;;;20.40;3.08;;;;;;;;;;4986993;28;20176;-67
2023/01/13 01:18:59;;;;;;;29.00;3.75;;;;;;;;;;4987590;28;20194;-67
2023/01/13 01:21:27;;;;;;;25.37;4.20;;;;;;;;;;4981918;28;20270;-67
2023/01/13 01:23:53;;;;;;;21.00;3.72;;;;;;;;;;4988970;28;20254;-68
2023/01/13 01:26:23;;;;;;;25.17;3.85;;;;;;;;;;4989931;28;20247;-67
2023/01/13 01:28:49;;;;;;;26.35;3.47;;;;;;;;;;4989647;28;20215;-67
2023/01/13 01:31:17;;;;;;;31.85;4.40;;;;;;;;;;4988574;28;20653;-67
2023/01/13 01:33:43;;;;;;;23.63;3.47;;;;;;;;;;4991487;28;20609;-66
2023/01/13 01:36:10;;;;;;;27.17;3.28;;;;;;;;;;4986668;28;20195;-66
2023/01/13 01:38:36;;;;;;;35.97;4.17;;;;;;;;;;4987721;28;20184;-67
2023/01/13 01:41:01;;;;;;;25.70;3.47;;;;;;;;;;4986506;28;20197;-67
2023/01/13 01:44:05;;;;;;;31.85;4.60;;;;;;;;;;4988176;28;21568;-66
2023/01/13 01:46:39;;;;;;;20.80;3.40;;;;;;;;;;4993707;28;20662;-67
2023/01/13 01:49:22;;;;;;;24.17;3.63;;;;;;;;;;4986042;28;20215;-66
2023/01/13 01:52:07;;;;;;;21.63;4.10;;;;;;;;;;4986337;28;20237;-67
2023/01/13 01:54:58;;;;;;;26.33;3.42;;;;;;;;;;4991827;28;20369;-67
2023/01/13 01:57:37;;;;;;;23.73;3.58;;;;;;;;;;4988337;28;20199;-67
2023/01/13 02:00:03;;;;;;;27.20;3.90;;;;;;;;;;4982668;28;20451;-66
2023/01/13 02:02:29;;;;;;;28.85;3.70;;;;;;;;;;4992489;28;20188;-66
2023/01/13 02:04:55;;;;;;;24.02;4.60;;;;;;;;;;4987520;28;20199;-66
2023/01/13 02:07:24;;;;;;;25.08;4.50;;;;;;;;;;4990997;28;20638;-66
2023/01/13 02:09:51;;;;;;;28.67;4.72;;;;;;;;;;4988214;28;20187;-66
2023/01/13 02:12:30;;;;;;;25.42;4.07;;;;;;;;;;4984553;28;20672;-67
2023/01/13 02:15:06;;;;;;;34.05;3.50;;;;;;;;;;4983391;28;20215;-67
2023/01/13 02:18:12;;;;;;;27.88;3.97;;;;;;;;;;4990578;28;20187;-67
2023/01/13 02:20:58;;;;;;;25.38;4.53;;;;;;;;;;4987644;28;20241;-66
2023/01/13 02:26:49;;;;;;;29.30;4.05;;;;;;;;;;4985456;28;20711;-66
2023/01/13 02:32:37;;;;;;;23.83;3.55;;;;;;;;;;4987996;28;20195;-66
2023/01/13 02:35:29;;;;;;;30.67;4.07;;;;;;;;;;4986800;28;20253;-66
2023/01/13 02:37:56;;;;;;;30.50;4.75;;;;;;;;;;4983052;28;20198;-66
2023/01/13 02:40:28;;;;;;;28.83;4.80;;;;;;;;;;4985816;28;20528;-66
2023/01/13 02:46:19;;;;;;;29.23;4.10;;;;;;;;;;4996215;28;20276;-66
2023/01/13 02:48:47;;;;;;;29.00;4.63;;;;;;;;;;4995301;28;20705;-67
2023/01/13 02:51:16;;;;;;;28.20;3.88;;;;;;;;;;4995374;28;20275;-66
2023/01/13 02:53:55;;;;;;;27.38;4.30;;;;;;;;;;4987914;28;20198;-66
2023/01/13 02:56:23;;;;;;;27.33;3.60;;;;;;;;;;4986564;28;20262;-66
2023/01/13 02:58:49;;;;;;;34.75;4.57;;;;;;;;;;4991734;28;20235;-66
2023/01/13 03:01:15;;;;;;;31.58;4.10;;;;;;;;;;4987105;28;20203;-66
2023/01/13 03:03:40;;;;;;;31.17;4.85;;;;;;;;;;4987243;28;20246;-66
2023/01/13 03:06:15;;;;;;;28.55;4.07;;;;;;;;;;4983412;28;20512;-66
2023/01/13 03:08:59;;;;;;;30.65;4.50;;;;;;;;;;4990819;28;20309;-66
2023/01/13 03:11:33;;;;;;;27.13;4.28;;;;;;;;;;4984903;28;20194;-66
2023/01/13 03:14:03;;;;;;;28.77;4.28;;;;;;;;;;4984516;28;20558;-67
2023/01/13 03:16:37;;;;;;;31.75;4.47;;;;;;;;;;4987637;28;20266;-66
2023/01/13 03:19:23;;;;;;;31.38;5.13;;;;;;;;;;4977095;28;20574;-66
2023/01/13 03:22:13;;;;;;;32.30;5.83;;;;;;;;;;4987305;28;20278;-66
2023/01/13 03:24:46;;;;;;;35.75;5.28;;;;;;;;;;4986201;28;20195;-66
2023/01/13 03:27:24;;;;;;;30.85;3.97;;;;;;;;;;4988461;28;20218;-66
2023/01/13 03:30:01;;;;;;;26.80;4.55;;;;;;;;;;4993082;28;20191;-67
2023/01/13 03:32:33;;;;;;;30.20;4.18;;;;;;;;;;4984106;28;20651;-67
2023/01/13 03:35:06;;;;;;;26.73;4.20;;;;;;;;;;4982957;28;20837;-66
2023/01/13 03:37:36;;;;;;;27.95;3.72;;;;;;;;;;4987718;28;20642;-66
2023/01/13 03:40:09;;;;;;;32.78;4.28;;;;;;;;;;4984434;28;20233;-67
2023/01/13 03:42:37;;;;;;;33.58;4.38;;;;;;;;;;4982975;28;20540;-66
2023/01/13 03:45:16;;;;;;;30.05;3.70;;;;;;;;;;4987959;28;20191;-66
2023/01/13 03:47:53;;;;;;;31.20;4.00;;;;;;;;;;4991638;28;20295;-66
2023/01/13 03:50:35;;;;;;;29.90;4.20;;;;;;;;;;4991497;28;20198;-66
2023/01/13 03:53:10;;;;;;;25.38;4.20;;;;;;;;;;4979609;28;20643;-66
2023/01/13 03:55:40;;;;;;;29.27;4.45;;;;;;;;;;4984614;28;20196;-66
2023/01/13 03:58:17;;;;;;;22.35;3.47;;;;;;;;;;5003041;28;20187;-66
2023/01/13 04:00:58;;;;;;;29.13;4.72;;;;;;;;;;4981782;28;20223;-66
2023/01/13 04:03:48;;;;;;;28.42;4.63;;;;;;;;;;4983058;28;20187;-66
2023/01/13 04:06:19;;;;;;;30.08;4.57;;;;;;;;;;4983024;28;20590;-66
2023/01/13 04:08:54;;;;;;;25.92;3.85;;;;;;;;;;4991059;28;20238;-66
2023/01/13 04:11:36;;;;;;;21.75;3.78;;;;;;;;;;4987584;28;20230;-66
2023/01/13 04:14:03;;;;;;;25.90;3.88;;;;;;;;;;4996567;28;20190;-67
2023/01/13 04:16:28;;;;;;;26.98;3.70;;;;;;;;;;4977895;28;20301;-66
2023/01/13 04:18:54;;;;;;;29.77;3.30;;;;;;;;;;4986988;28;20203;-66
2023/01/13 04:21:19;;;;;;;30.73;4.35;;;;;;;;;;4987242;28;20230;-66
2023/01/13 04:23:45;;;;;;;30.92;3.92;;;;;;;;;;4983982;28;20199;-66
2023/01/13 04:26:10;;;;;;;24.55;3.67;;;;;;;;;;4981877;28;20729;-66
2023/01/13 04:28:35;;;;;;;25.10;3.40;;;;;;;;;;4987633;28;20191;-66
2023/01/13 04:31:01;;;;;;;23.08;3.47;;;;;;;;;;4988386;28;20191;-66
2023/01/13 04:33:27;;;;;;;24.83;3.78;;;;;;;;;;4987237;28;20206;-66
2023/01/13 04:35:52;;;;;;;28.08;3.80;;;;;;;;;;4982276;28;20176;-66
2023/01/13 04:38:21;;;;;;;26.58;3.70;;;;;;;;;;4978488;28;20297;-66
2023/01/13 04:40:47;;;;;;;27.27;3.60;;;;;;;;;;4987843;28;20299;-66
2023/01/13 04:43:14;;;;;;;31.27;4.00;;;;;;;;;;4982419;28;20303;-66
2023/01/13 04:45:40;;;;;;;33.78;5.65;;;;;;;;;;4984861;28;20208;-67
2023/01/13 04:48:06;;;;;;;25.02;4.07;;;;;;;;;;4988003;28;20191;-66
2023/01/13 04:50:32;;;;;;;27.77;3.70;;;;;;;;;;4987785;28;20192;-67
2023/01/13 04:52:59;;;;;;;29.13;4.07;;;;;;;;;;4985230;28;20238;-67
2023/01/13 04:55:24;;;;;;;32.22;4.07;;;;;;;;;;4981036;28;20195;-67
2023/01/13 04:57:50;;;;;;;25.63;3.72;;;;;;;;;;4988999;28;20190;-67
2023/01/13 05:00:17;;;;;;;29.20;4.13;;;;;;;;;;5000358;28;20689;-67
2023/01/13 05:02:43;;;;;;;26.77;4.63;;;;;;;;;;4996773;28;20191;-66
2023/01/13 05:05:09;;;;;;;26.75;3.90;;;;;;;;;;4989731;28;20740;-66
2023/01/13 05:07:34;;;;;;;33.97;4.40;;;;;;;;;;4990706;28;20199;-66
2023/01/13 05:10:00;;;;;;;32.88;3.85;;;;;;;;;;4998482;28;20187;-66
2023/01/13 05:17:59;;;;;;;28.05;3.70;;;;;;;;;;4994740;28;20222;-66
2023/01/13 05:20:24;;;;;;;17.52;3.75;;;;;;;;;;5000666;28;20187;-66
2023/01/13 05:25:38;;;;;;;25.80;3.72;;;;;;;;;;4996149;28;20242;-66
2023/01/13 05:28:03;;;;;;;22.38;3.50;;;;;;;;;;4991149;28;20210;-66
2023/01/13 05:30:36;;;;;;;20.65;3.10;;;;;;;;;;5004798;28;20273;-66
2023/01/13 05:33:01;;;;;;;23.35;3.00;;;;;;;;;;4988671;28;20203;-66
2023/01/13 05:35:28;;;;;;;25.25;3.25;;;;;;;;;;4995223;28;20690;-66
2023/01/13 05:37:54;;;;;;;20.85;2.85;;;;;;;;;;5000310;28;20237;-66
2023/01/13 05:43:23;;;;;;;21.10;3.60;;;;;;;;;;4988722;28;20214;-66
2023/01/13 05:46:01;;;;;;;19.45;3.40;;;;;;;;;;5001063;28;20218;-66
2023/01/13 05:48:52;;;;;;;18.50;2.37;;;;;;;;;;4998954;28;20189;-66
2023/01/13 05:51:21;;;;;;;16.43;2.30;;;;;;;;;;4994617;28;20203;-66
2023/01/13 05:53:46;;;;;;;14.93;2.85;;;;;;;;;;5000586;28;20210;-66
2023/01/13 05:56:12;;;;;;;17.75;2.60;;;;;;;;;;4990225;28;20192;-66
2023/01/13 05:58:37;;;;;;;14.90;2.28;;;;;;;;;;4992804;28;20657;-66
2023/01/13 06:01:05;;;;;;;17.50;2.43;;;;;;;;;;4984986;28;20289;-66
2023/01/13 06:03:31;;;;;;;16.70;2.00;;;;;;;;;;4986963;28;20206;-67
2023/01/13 06:06:01;;;;;;;13.70;2.25;;;;;;;;;;4987732;28;20215;-66
2023/01/13 06:08:27;;;;;;;12.90;1.70;;;;;;;;;;4976800;28;20191;-66
2023/01/13 06:10:52;;;;;;;14.98;2.35;;;;;;;;;;4983334;28;20203;-66
2023/01/13 06:13:18;;;;;;;11.48;1.77;;;;;;;;;;4987541;28;20727;-67
2023/01/13 06:15:43;;;;;;;12.40;1.65;;;;;;;;;;4991459;28;20188;-66
2023/01/13 06:18:08;;;;;;;20.83;1.77;;;;;;;;;;4986949;28;20201;-66
2023/01/13 06:20:34;;;;;;;12.67;1.50;;;;;;;;;;4991643;28;20188;-67
2023/01/13 06:23:00;;;;;;;8.10;1.37;;;;;;;;;;4983371;28;20279;-67
2023/01/13 06:25:53;;;;;;;13.25;1.77;;;;;;;;;;4988252;28;20258;-66
2023/01/13 06:28:19;;;;;;;18.67;1.90;;;;;;;;;;4993046;28;20250;-66
2023/01/13 06:30:48;;;;;;;12.70;1.67;;;;;;;;;;4995721;28;20732;-67
2023/01/13 06:33:16;;;;;;;16.02;2.13;;;;;;;;;;4995389;28;20210;-67
2023/01/13 06:35:44;;;;;;;15.37;1.80;;;;;;;;;;4989730;28;20194;-66
2023/01/13 06:38:13;;;;;;;12.90;2.03;;;;;;;;;;5003732;28;20666;-67
2023/01/13 06:40:41;;;;;;;17.67;2.23;;;;;;;;;;4991054;28;20289;-67
2023/01/13 06:43:15;;;;;;;15.70;2.40;;;;;;;;;;5000572;28;20274;-67
2023/01/13 06:45:49;;;;;;;14.77;1.90;;;;;;;;;;5000348;28;20709;-67
2023/01/13 06:48:16;;;;;;;11.65;1.85;;;;;;;;;;4999322;28;20205;-67
2023/01/13 06:50:42;;;;;;;15.60;1.60;;;;;;;;;;4995952;28;20194;-67
2023/01/13 06:53:08;;;;;;;13.30;1.55;;;;;;;;;;5003467;28;20199;-67
2023/01/13 06:55:33;;;;;;;10.80;1.67;;;;;;;;;;4991386;28;20226;-67
2023/01/13 06:57:59;;;;;;;10.77;2.10;;;;;;;;;;4990451;28;20211;-67
2023/01/13 07:00:25;;;;;;;15.90;2.67;;;;;;;;;;4986080;28;20579;-66
2023/01/13 07:02:50;;;;;;;12.37;1.77;;;;;;;;;;4990404;28;20202;-67
2023/01/13 07:05:17;;;;;;;13.23;2.13;;;;;;;;;;4993254;28;20191;-67
2023/01/13 07:07:43;;;;;;;13.02;2.13;;;;;;;;;;4986316;28;20195;-67
2023/01/13 07:10:12;;;;;;;14.47;1.93;;;;;;;;;;4992050;28;20199;-67
2023/01/13 07:15:23;;;;;;;9.83;1.97;;;;;;;;;;4983419;28;20408;-67
2023/01/13 07:17:48;;;;;;;13.27;2.80;;;;;;;;;;4983416;28;20590;-66
2023/01/13 07:20:15;;;;;;;12.87;2.30;;;;;;;;;;4994091;28;20563;-67
2023/01/13 07:22:40;;;;;;;11.48;2.17;;;;;;;;;;4988745;28;20319;-68
2023/01/13 07:25:07;;;;;;;12.23;2.63;;;;;;;;;;4988393;28;20298;-67
2023/01/13 07:27:32;;;;;;;16.60;2.43;;;;;;;;;;4983856;28;20211;-65
2023/01/13 07:29:57;;;;;;;19.10;3.53;;;;;;;;;;4984098;28;20246;-66
2023/01/13 07:32:23;;;;;;;13.98;2.28;;;;;;;;;;4985094;28;20428;-65
2023/01/13 07:34:48;;;;;;;12.57;2.50;;;;;;;;;;4982975;28;20503;-65
2023/01/13 07:37:13;;;;;;;19.27;2.47;;;;;;;;;;4983282;28;20190;-66
2023/01/13 07:39:39;;;;;;;18.27;2.92;;;;;;;;;;4983594;28;20206;-66
2023/01/13 07:44:48;;;;;;;21.73;2.92;;;;;;;;;;4994730;28;20210;-66
2023/01/13 07:47:13;;;;;;;14.30;2.53;;;;;;;;;;4996543;28;20289;-66
2023/01/13 07:49:39;;;;;;;16.40;2.30;;;;;;;;;;5005196;28;20198;-66
2023/01/13 07:52:04;;;;;;;16.20;2.70;;;;;;;;;;4999037;28;20191;-67
2023/01/13 07:54:30;;;;;;;13.90;2.53;;;;;;;;;;4998691;28;20742;-66
2023/01/13 07:56:55;;;;;;;18.77;2.50;;;;;;;;;;4999208;28;20196;-66
2023/01/13 07:59:21;;;;;;;18.73;2.80;;;;;;;;;;4998092;28;20274;-65
2023/01/13 08:01:46;;;;;;;20.90;2.87;;;;;;;;;;4995900;28;20213;-65
2023/01/13 08:04:12;;;;;;;20.55;2.53;;;;;;;;;;4988316;28;20231;-65
2023/01/13 08:06:39;;;;;;;17.27;2.60;;;;;;;;;;4985610;28;20527;-67
2023/01/13 08:09:05;;;;;;;16.90;2.90;;;;;;;;;;4986912;28;20192;-67
2023/01/13 08:11:30;;;;;;;21.03;3.33;;;;;;;;;;4995341;28;20308;-67
2023/01/13 08:13:56;;;;;;;18.70;2.77;;;;;;;;;;4983612;28;20197;-67
2023/01/13 08:16:22;;;;;;;18.77;3.47;;;;;;;;;;4994467;28;20197;-65
2023/01/13 08:18:48;;;;;;;22.60;3.30;;;;;;;;;;5004350;28;20192;-67
2023/01/13 08:21:14;;;;;;;17.30;2.72;;;;;;;;;;4996585;28;20563;-69
2023/01/13 08:23:41;;;;;;;21.48;2.85;;;;;;;;;;4992904;28;20223;-67
2023/01/13 08:26:10;;;;;;;16.30;2.30;;;;;;;;;;4986053;28;20227;-67
2023/01/13 08:28:35;;;;;;;17.13;2.30;;;;;;;;;;4981923;28;20195;-67
2023/01/13 08:31:03;;;;;;;20.85;2.80;;;;;;;;;;4988327;28;20256;-67
2023/01/13 08:33:29;;;;;;;16.47;2.80;;;;;;;;;;4992125;28;20199;-67
2023/01/13 08:35:55;;;;;;;16.63;2.25;;;;;;;;;;4994221;28;20916;-67
2023/01/13 08:38:22;;;;;;;21.02;4.05;;;;;;;;;;4980528;28;20635;-67
2023/01/13 08:40:47;;;;;;;20.98;3.15;;;;;;;;;;4997175;28;20182;-67
2023/01/13 08:43:13;;;;;;;13.57;2.50;;;;;;;;;;4991887;28;20198;-67
2023/01/13 08:45:38;;;;;;;14.88;2.47;;;;;;;;;;4992107;28;20339;-66
2023/01/13 08:48:04;;;;;;;21.38;3.20;;;;;;;;;;4990791;28;20227;-67
2023/01/13 08:50:29;;;;;;;18.25;3.60;;;;;;;;;;4992899;28;20650;-66
2023/01/13 08:52:54;;;;;;;25.80;3.67;;;;;;;;;;4994168;28;20250;-67
2023/01/13 08:55:20;;;;;;;22.27;2.45;;;;;;;;;;5006229;28;20198;-67
2023/01/13 08:57:45;;;;;;;20.85;2.80;;;;;;;;;;4996251;28;20600;-66
2023/01/13 09:00:12;;;;;;;23.05;3.05;;;;;;;;;;4990589;28;20316;-67
2023/01/13 09:02:37;;;;;;;23.10;3.42;;;;;;;;;;4994652;28;20272;-67
2023/01/13 09:05:06;;;;;;;20.33;3.20;;;;;;;;;;5005718;28;20213;-67
2023/01/13 09:07:32;;;;;;;19.23;3.35;;;;;;;;;;5000850;28;20294;-66
2023/01/13 09:09:58;;;;;;;18.42;2.67;;;;;;;;;;5007278;28;20194;-67
2023/01/13 09:15:08;;;;;;;22.10;3.03;;;;;;;;;;5002971;28;20183;-66
2023/01/13 09:17:34;;;;;;;17.83;2.58;;;;;;;;;;5001881;28;20187;-66
2023/01/13 09:19:59;;;;;;;26.60;2.97;;;;;;;;;;5002197;28;20187;-67
2023/01/13 09:22:28;;;;;;;19.58;2.72;;;;;;;;;;4999376;28;20200;-66
2023/01/13 09:24:54;;;;;;;14.30;2.72;;;;;;;;;;4997495;28;20199;-67
2023/01/13 09:27:20;;;;;;;19.13;2.60;;;;;;;;;;5007457;28;20242;-67
2023/01/13 09:29:45;;;;;;;17.52;3.08;;;;;;;;;;5005232;28;20569;-68
2023/01/13 09:32:12;;;;;;;25.92;3.53;;;;;;;;;;4989444;28;20198;-67
2023/01/13 09:37:21;;;;;;;24.60;3.33;;;;;;;;;;5002639;28;20638;-67
2023/01/13 09:39:47;;;;;;;17.23;3.03;;;;;;;;;;4995479;28;20238;-68
2023/01/13 09:45:11;;;;;;;20.73;2.95;;;;;;;;;;5006418;28;20186;-67
2023/01/13 09:47:44;;;;;;;20.85;3.22;;;;;;;;;;5002452;28;20216;-70
2023/01/13 09:50:15;;;;;;;21.45;3.00;;;;;;;;;;5008614;28;20720;-71
2023/01/13 09:52:42;;;;;;;19.45;3.35;;;;;;;;;;5006179;28;20192;-71
2023/01/13 09:55:22;;;;;;;26.58;3.60;;;;;;;;;;5009116;28;20211;-72
2023/01/13 09:57:47;;;;;;;22.80;2.78;;;;;;;;;;5001973;28;20184;-72
2023/01/13 10:00:22;;;;;;;21.20;3.08;;;;;;;;;;5004848;28;20215;-74
2023/01/13 10:02:50;;;;;;;25.35;3.80;;;;;;;;;;5008120;28;20256;-73
2023/01/13 10:05:55;;;;;;;22.98;3.58;;;;;;;;;;5005538;28;20190;-73
2023/01/13 10:08:31;;;;;;;27.03;3.40;;;;;;;;;;5001196;28;20195;-71
2023/01/13 10:10:59;;;;;;;28.73;3.40;;;;;;;;;;5006400;28;20206;-71
2023/01/13 10:13:29;;;;;;;21.83;3.70;;;;;;;;;;5004091;28;20210;-74
2023/01/13 10:16:10;;;;;;;17.60;3.43;;;;;;;;;;5005025;28;20183;-71
2023/01/13 10:18:50;;;;;;;26.87;3.40;;;;;;;;;;4997907;28;20198;-70
2023/01/13 10:21:54;;;;;;;20.50;2.93;;;;;;;;;;5005360;28;20386;-70
2023/01/13 10:24:57;;;;;;;19.67;3.00;;;;;;;;;;4985341;28;20655;-69
2023/01/13 10:27:37;;;;;;;20.07;3.10;;;;;;;;;;5009353;28;20210;-68
2023/01/13 10:30:29;;;;;;;25.60;3.73;;;;;;;;;;5009163;28;20257;-68
2023/01/13 10:32:58;;;;;;;18.53;3.03;;;;;;;;;;5000229;28;20731;-69
2023/01/13 10:35:49;;;;;;;25.50;3.10;;;;;;;;;;5006518;28;20210;-69
2023/01/13 10:38:18;;;;;;;18.73;2.83;;;;;;;;;;4996859;28;20222;-68
2023/01/13 10:40:52;;;;;;;19.80;3.20;;;;;;;;;;5004889;28;20601;-69
2023/01/13 10:43:18;;;;;;;17.30;3.07;;;;;;;;;;5003221;28;20226;-69
2023/01/13 10:46:03;;;;;;;20.20;2.50;;;;;;;;;;5003507;28;20738;-68
2023/01/13 10:48:42;;;;;;;17.93;2.73;;;;;;;;;;5002884;28;21089;-69
2023/01/13 10:51:37;;;;;;;19.40;3.33;;;;;;;;;;5005415;28;20272;-69
2023/01/13 10:54:11;;;;;;;15.83;3.17;;;;;;;;;;5003044;28;20195;-69
2023/01/13 10:56:42;;;;;;;21.03;2.93;;;;;;;;;;5005923;28;20576;-68
2023/01/13 10:59:23;;;;;;;17.60;2.80;;;;;;;;;;5000405;28;20650;-69
2023/01/13 11:01:55;;;;;;;22.33;3.97;;;;;;;;;;4985243;28;20236;-68
2023/01/13 11:04:53;;;;;;;18.50;2.97;;;;;;;;;;5002388;28;20191;-68
2023/01/13 11:07:36;;;;;;;21.43;2.50;;;;;;;;;;4997909;28;20317;-68
2023/01/13 11:10:07;;;;;;;15.57;2.57;;;;;;;;;;5003355;28;20209;-68
2023/01/13 11:12:34;;;;;;;18.48;3.25;;;;;;;;;;5008184;28;20202;-69
2023/01/13 11:15:04;;;;;;;17.33;3.80;;;;;;;;;;5001162;28;20372;-69
2023/01/13 11:17:45;;;;;;;15.70;2.80;;;;;;;;;;4995163;28;20573;-68
2023/01/13 11:20:10;;;;;;;17.77;2.90;;;;;;;;;;4983263;28;20203;-68
2023/01/13 11:22:50;;;;;;;25.58;3.72;;;;;;;;;;4991543;28;20194;-68
2023/01/13 11:25:34;;;;;;;17.50;3.33;;;;;;;;;;4993701;28;20238;-68
2023/01/13 11:28:26;;;;;;;15.35;2.88;;;;;;;;;;4988864;28;20187;-68
2023/01/13 11:31:00;;;;;;;21.20;3.15;;;;;;;;;;5005808;28;20183;-68
2023/01/13 11:33:37;;;;;;;25.95;3.20;;;;;;;;;;4987451;28;20203;-67
2023/01/13 11:36:10;;;;;;;17.05;2.60;;;;;;;;;;4987371;28;20240;-68
2023/01/13 11:38:54;;;;;;;22.55;3.33;;;;;;;;;;4994667;28;20200;-68
2023/01/13 11:41:43;;;;;;;19.00;2.78;;;;;;;;;;4993918;28;20678;-68
2023/01/13 11:44:23;;;;;;;17.00;2.75;;;;;;;;;;4986569;28;20180;-67
2023/01/13 11:46:50;;;;;;;17.00;3.30;;;;;;;;;;4993297;28;20218;-68
2023/01/13 11:49:31;;;;;;;17.70;3.47;;;;;;;;;;4988698;28;20210;-67
2023/01/13 11:52:12;;;;;;;19.80;3.47;;;;;;;;;;4992806;28;20183;-67
2023/01/13 11:54:55;;;;;;;20.08;3.22;;;;;;;;;;4995573;28;20658;-68
2023/01/13 11:57:48;;;;;;;20.58;2.97;;;;;;;;;;5001335;28;20614;-67
2023/01/13 12:00:54;;;;;;;19.08;3.55;;;;;;;;;;4988813;28;20269;-67
2023/01/13 12:03:56;;;;;;;19.13;2.42;;;;;;;;;;4997980;28;20195;-69
2023/01/13 12:06:33;;;;;;;22.73;3.22;;;;;;;;;;4993517;28;20218;-67
2023/01/13 12:09:31;;;;;;;24.30;3.53;;;;;;;;;;4999007;28;20223;-68
2023/01/13 12:12:26;;;;;;;26.80;4.07;;;;;;;;;;5002619;28;20206;-68
2023/01/13 12:15:13;;;;;;;22.25;3.35;;;;;;;;;;4998714;28;20293;-68
2023/01/13 12:17:54;;;;;;;22.10;3.17;;;;;;;;;;5002120;28;20186;-67
2023/01/13 12:20:45;;;;;;;24.95;3.30;;;;;;;;;;4999074;28;20717;-68
2023/01/13 12:23:30;;;;;;;19.77;3.20;;;;;;;;;;4995683;28;20194;-68
2023/01/13 12:26:00;;;;;;;22.42;2.90;;;;;;;;;;5004881;28;20241;-68
2023/01/13 12:28:45;;;;;;;16.38;3.28;;;;;;;;;;5000946;28;20278;-68
2023/01/13 12:31:12;;;;;;;19.65;3.30;;;;;;;;;;5003384;28;20261;-67
2023/01/13 12:33:46;;;;;;;23.92;3.17;;;;;;;;;;4995266;28;20237;-68
2023/01/13 12:36:47;;;;;;;18.95;3.35;;;;;;;;;;5005642;28;20190;-67
2023/01/13 12:39:41;;;;;;;14.93;2.75;;;;;;;;;;4949828;28;20205;-67
2023/01/13 12:45:08;;;;;;;19.95;3.13;;;;;;;;;;4986875;28;20210;-68
2023/01/13 12:47:38;;;;;;;18.85;3.60;;;;;;;;;;4987447;28;20198;-68
2023/01/13 12:50:25;;;;;;;24.00;3.50;;;;;;;;;;4989875;28;20659;-68
2023/01/13 12:52:53;;;;;;;20.42;2.90;;;;;;;;;;5000411;28;20237;-68
2023/01/13 12:55:24;;;;;;;18.95;3.42;;;;;;;;;;4987136;28;20194;-67
2023/01/13 12:58:05;;;;;;;18.95;3.50;;;;;;;;;;4982193;28;20605;-67
2023/01/13 13:00:39;;;;;;;18.20;3.00;;;;;;;;;;4981742;28;20211;-67
2023/01/13 13:03:11;;;;;;;15.05;2.40;;;;;;;;;;4987718;28;20282;-67
2023/01/13 13:06:04;;;;;;;15.40;2.67;;;;;;;;;;4991495;28;20376;-67
2023/01/13 13:08:40;;;;;;;24.55;3.60;;;;;;;;;;4986513;28;20434;-68
2023/01/13 13:14:38;;;;;;;24.92;2.88;;;;;;;;;;4985922;28;20467;-68
2023/01/13 13:17:18;;;;;;;19.05;2.47;;;;;;;;;;4997748;28;20329;-69
2023/01/13 13:19:46;;;;;;;18.30;2.97;;;;;;;;;;4981887;28;20579;-68
2023/01/13 13:22:11;;;;;;;19.85;2.92;;;;;;;;;;4993116;28;20548;-68
2023/01/13 13:24:41;;;;;;;18.25;3.05;;;;;;;;;;4985342;28;20198;-68
2023/01/13 13:27:41;;;;;;;17.20;2.75;;;;;;;;;;4992320;28;20280;-69
2023/01/13 13:30:28;;;;;;;18.90;3.08;;;;;;;;;;4992184;28;20191;-68
2023/01/13 13:33:18;;;;;;;22.38;2.88;;;;;;;;;;4990965;28;20271;-68
2023/01/13 13:36:34;;;;;;;19.80;3.13;;;;;;;;;;4984540;28;20202;-68
2023/01/13 13:48:26;;;;;;;19.27;2.77;;;;;;;;;;5009292;28;20195;-67
2023/01/13 13:51:00;;;;;;;24.40;3.90;;;;;;;;;;4996586;28;20250;-67
2023/01/13 13:53:31;;;;;;;15.90;2.38;;;;;;;;;;4987960;28;20191;-67
2023/01/13 13:55:58;;;;;;;18.23;2.63;;;;;;;;;;4974883;28;20206;-68
2023/01/13 13:58:26;;;;;;;13.40;2.50;;;;;;;;;;4993258;28;20196;-68
2023/01/13 14:00:53;;;;;;;21.30;3.22;;;;;;;;;;4993060;28;20270;-68
2023/01/13 14:03:21;;;;;;;22.63;3.30;;;;;;;;;;4991788;28;20189;-67
2023/01/13 14:05:58;;;;;;;19.53;2.90;;;;;;;;;;4992276;28;20562;-68
2023/01/13 14:08:26;;;;;;;17.05;2.83;;;;;;;;;;5002039;28;20194;-68
2023/01/13 14:10:51;;;;;;;20.17;2.88;;;;;;;;;;5006944;28;20187;-68
2023/01/13 14:13:23;;;;;;;12.57;1.93;;;;;;;;;;5002074;28;20636;-68
2023/01/13 14:15:58;;;;;;;20.80;2.88;;;;;;;;;;5006110;28;20182;-68
2023/01/13 14:18:24;;;;;;;14.50;2.42;;;;;;;;;;5005410;28;20448;-68
2023/01/13 14:21:17;;;;;;;11.82;2.47;;;;;;;;;;5000871;28;20193;-68
2023/01/13 14:23:56;;;;;;;17.08;2.35;;;;;;;;;;5002295;28;20190;-68
2023/01/13 14:26:25;;;;;;;11.27;1.90;;;;;;;;;;5000319;28;20232;-68
2023/01/13 14:28:51;;;;;;;10.00;1.80;;;;;;;;;;5000401;28;20616;-67
2023/01/13 14:31:17;;;;;;;16.63;2.75;;;;;;;;;;4994479;28;20191;-67
2023/01/13 14:33:49;;;;;;;11.50;2.20;;;;;;;;;;5000702;28;20557;-67
2023/01/13 14:36:37;;;;;;;8.57;1.63;;;;;;;;;;5001962;28;20190;-68
2023/01/13 14:39:02;;;;;;;12.13;1.65;;;;;;;;;;5005993;28;20552;-68
2023/01/13 14:41:34;;;;;;;12.00;1.73;;;;;;;;;;4998607;28;20198;-68
2023/01/13 14:44:03;;;;;;;14.98;2.05;;;;;;;;;;4990458;28;20202;-67
2023/01/13 14:46:43;;;;;;;11.82;1.58;;;;;;;;;;4997540;28;20211;-66
2023/01/13 14:49:41;;;;;;;11.43;2.05;;;;;;;;;;4993002;28;20191;-67
2023/01/13 14:52:20;;;;;;;10.73;1.80;;;;;;;;;;4985968;28;20219;-68
2023/01/13 14:55:05;;;;;;;15.93;2.35;;;;;;;;;;4988835;28;20282;-67
2023/01/13 14:57:32;;;;;;;8.68;1.35;;;;;;;;;;4979697;28;20303;-67
2023/01/13 15:00:00;;;;;;;11.15;1.75;;;;;;;;;;4993715;28;20296;-67
2023/01/13 15:02:29;;;;;;;9.40;1.50;;;;;;;;;;4981363;28;20199;-68
2023/01/13 15:04:58;;;;;;;13.50;2.28;;;;;;;;;;4976801;28;20655;-68
2023/01/13 15:07:31;;;;;;;13.68;2.17;;;;;;;;;;4984675;28;20291;-67
2023/01/13 15:10:01;;;;;;;9.18;1.52;;;;;;;;;;4986570;28;20283;-66
2023/01/13 15:12:38;;;;;;;14.43;2.05;;;;;;;;;;4991876;28;20219;-68
2023/01/13 15:15:06;;;;;;;7.90;1.55;;;;;;;;;;4967435;28;20242;-67
2023/01/13 15:17:31;;;;;;;12.70;2.25;;;;;;;;;;4983436;28;20592;-67
2023/01/13 15:19:56;;;;;;;19.48;1.88;;;;;;;;;;4982560;28;20230;-67
2023/01/13 15:22:22;;;;;;;8.18;1.98;;;;;;;;;;4979275;28;20241;-67
2023/01/13 15:24:47;;;;;;;11.85;2.03;;;;;;;;;;4983627;28;20203;-67
2023/01/13 15:27:24;;;;;;;11.80;1.95;;;;;;;;;;4983533;28;20224;-67
2023/01/13 15:29:50;;;;;;;12.48;1.85;;;;;;;;;;4975814;28;20204;-68
2023/01/13 15:32:18;;;;;;;16.92;1.67;;;;;;;;;;4976946;28;20734;-67
2023/01/13 15:34:44;;;;;;;6.35;1.17;;;;;;;;;;4979166;28;20648;-67
2023/01/13 15:37:09;;;;;;;11.13;1.55;;;;;;;;;;4992967;28;20259;-68
2023/01/13 15:39:35;;;;;;;11.70;1.67;;;;;;;;;;5000001;28;20229;-68
2023/01/13 15:47:28;;;;;;;5.60;0.80;;;;;;;;;;4990124;28;20213;-70
2023/01/13 15:49:54;;;;;;;3.77;0.90;;;;;;;;;;4983944;28;20560;-70
2023/01/13 15:52:24;;;;;;;13.15;1.65;;;;;;;;;;4989783;28;20329;-70
2023/01/13 15:54:50;;;;;;;10.60;1.67;;;;;;;;;;4993047;28;20270;-70
2023/01/13 15:57:21;;;;;;;6.30;1.13;;;;;;;;;;4992912;28;20212;-69